VAM | FAF

Virtual Airlines Manager! Gestion de la flotte et des vols FAFZone VA FrenchAirForce A new look to your va. By: Jonatha Silva




 METAR ET TAF INFORMATION
METAR FOR NTAA
ADDS - METARS form results

(2215 UTC 02 February 2023)
Data provider http://aviationweather.gov/metar/data/
 
METAR text: NTAA 022200Z 23008KT 9999 FEW023CB 31/23 Q1012 NOSIG
Conditions at: NTAA (TAHITI-FAAA POLY, PF) observed 2200 UTC 02 February 2023
Temperature: 31.0°C (88°F)
Dewpoint: 23.0°C (73°F) [RH = 63%]
Pressure (altimeter): 29.88 inches Hg (1012.0 mb)
Winds: from the SW (230 degrees) at 9 MPH (8 knots; 4.1 m/s)
Visibility: 6 or more miles (10+ km)
Ceiling: at least 12,000 feet AGL
Clouds: few clouds at 2300 feet AGL
Weather: no significant weather observed at this time

METAR text: NTAA 022130Z 22009KT 9999 FEW026 31/22 Q1013 NOSIG
Conditions at: NTAA (TAHITI-FAAA POLY, PF) observed 2130 UTC 02 February 2023
Temperature: 31.0°C (88°F)
Dewpoint: 22.0°C (72°F) [RH = 59%]
Pressure (altimeter): 29.91 inches Hg (1013.0 mb)
Winds: from the SW (220 degrees) at 10 MPH (9 knots; 4.6 m/s)
Visibility: 6 or more miles (10+ km)
Ceiling: at least 12,000 feet AGL
Clouds: few clouds at 2600 feet AGL
Weather: no significant weather observed at this time

Forecast for: NTAA (TAHITI-FAAA POLY, PF)
Text: TAF NTAA 021700Z 0218/0324 VRB05KT 9999 FEW023
Forecast period: 1800 UTC 02 February 2023 to 0000 UTC 04 February 2023
Forecast type: FROM: standard forecast or significant change
Winds: variable direction winds at 6 MPH (5 knots; 2.6 m/s)
Visibility: 6 or more miles (10+ km)
Ceiling: at least 12,000 feet AGL
Clouds: few clouds at 2300 feet AGL
Weather: no significant weather forecast for this period
Text: PROB40
Forecast period: 0000 UTC 03 February 2023 to 0000 UTC 04 February 2023
Forecast type: TEMPORARY: The following changes expected for less than half the time period
Winds: from the ENE (60 degrees) at 23 MPH (20 knots; 10.3 m/s)
gusting to 40 MPH (35 knots; 18.0 m/s)
Visibility: 1.86 miles (2.99 km)
Ceiling: 3000 feet AGL
Clouds: few clouds at 1600 feet AGL
broken clouds at 3000 feet AGL
Weather: TSRA  (rain associated with thunderstorm(s))

 AÉROPORT DE AÉROPORT

 INFORMATIONS DE PISTE
Piste 04 Longueur de la piste 11360 ft Largeur de la piste 148 ft
Élévation de la piste 5 ft Seuil de la piste déplacés 1120 ft Runway heading 54
Piste 22 Longueur de la piste 11360 ft Largeur de la piste 148 ft
Élévation de la piste 5 ft Seuil de la piste déplacés 390 ft Runway heading 234

 AÉROPORT FRÉQUENCES
Type APP Nom APP Féquence 118.1 MHZ
Type ATIS Nom ATIS Féquence 128.8 MHZ
Type GND Nom GND Féquence 121.9 MHZ
Type TWR Nom TWR Féquence 118.1 MHZ

 SIDA DE NAVIGATION
Type NDB Nom Tahiti Faaa Féquence 305 KHZ
Type VOR-DME Nom Tahiti Faaa Féquence 112900 KHZ